Time;durP1;ratioP1;P1;durP2;ratioP2;P2;SDS_P1;SDS_P2;PMS_P1;PMS_P2;Temp;Humidity;BMP_temperature;BMP_pressure;BME280_temperature;BME280_humidity;BME280_pressure;Samples;Min_cycle;Max_cycle;Signal;HPM_P1;HPM_P2
2023/07/30 00:01:26;;;;;;;0.13;0.13;;;12.40;58.00;;;;;;5051135;28;20202;-57
2023/07/30 00:03:56;;;;;;;0.20;0.20;;;12.40;58.10;;;;;;5051222;28;20218;-54
2023/07/30 00:06:27;;;;;;;0.20;0.20;;;12.40;58.10;;;;;;5051517;28;20589;-54
2023/07/30 00:09:00;;;;;;;0.10;0.10;;;12.50;58.20;;;;;;5051417;28;20234;-56
2023/07/30 00:11:30;;;;;;;0.10;0.10;;;12.50;58.20;;;;;;5051447;28;20214;-48
2023/07/30 00:14:01;;;;;;;0.15;0.15;;;12.50;58.20;;;;;;5051354;28;20265;-51
2023/07/30 00:16:31;;;;;;;0.20;0.20;;;12.50;58.20;;;;;;5051329;28;20219;-56
2023/07/30 00:19:02;;;;;;;0.15;0.15;;;12.50;58.30;;;;;;5050939;28;20655;-56
2023/07/30 00:21:33;;;;;;;0.10;0.10;;;12.60;58.30;;;;;;5051345;28;20199;-57
2023/07/30 00:24:05;;;;;;;0.10;0.10;;;12.60;58.30;;;;;;5051507;28;20199;-62
2023/07/30 00:26:38;;;;;;;0.10;0.10;;;12.60;58.30;;;;;;5051254;28;20594;-57
2023/07/30 00:29:08;;;;;;;0.13;0.13;;;12.60;58.20;;;;;;5051240;28;20223;-55
2023/07/30 00:31:39;;;;;;;0.10;0.10;;;12.70;58.30;;;;;;5051144;28;20245;-59
2023/07/30 00:34:09;;;;;;;0.20;0.20;;;12.70;58.40;;;;;;5051164;28;20203;-52
2023/07/30 00:36:40;;;;;;;0.17;0.17;;;12.70;58.40;;;;;;5051431;28;20670;-54
2023/07/30 00:39:13;;;;;;;0.10;0.10;;;12.70;58.50;;;;;;5051519;28;20195;-50
2023/07/30 00:41:43;;;;;;;0.10;0.10;;;12.70;58.60;;;;;;5051295;28;20200;-63
2023/07/30 00:44:14;;;;;;;0.10;0.10;;;12.80;58.60;;;;;;5051314;28;20196;-60
2023/07/30 00:46:44;;;;;;;0.20;0.20;;;12.80;58.50;;;;;;5050641;28;20202;-56
2023/07/30 00:49:15;;;;;;;0.10;0.10;;;12.80;58.60;;;;;;5053159;28;20277;-59
2023/07/30 00:51:46;;;;;;;0.10;0.10;;;12.80;58.60;;;;;;5055265;28;20183;-61
2023/07/30 00:54:18;;;;;;;0.10;0.10;;;12.90;58.70;;;;;;5049308;28;20195;-54
2023/07/30 00:56:53;;;;;;;0.20;0.20;;;12.90;58.70;;;;;;5040749;28;20192;-48
2023/07/30 00:59:24;;;;;;;0.10;0.10;;;12.90;58.70;;;;;;5037516;28;20282;-58
2023/07/30 01:01:55;;;;;;;0.10;0.10;;;12.90;58.70;;;;;;5051116;28;20380;-50
2023/07/30 01:04:26;;;;;;;0.10;0.10;;;13.00;58.70;;;;;;5051243;28;20198;-57
2023/07/30 01:06:57;;;;;;;0.17;0.17;;;13.00;58.80;;;;;;5053438;28;20199;-48
2023/07/30 01:09:29;;;;;;;0.10;0.10;;;13.00;58.90;;;;;;5048932;28;20234;-50
2023/07/30 01:12:00;;;;;;;0.10;0.10;;;13.10;59.00;;;;;;5049776;28;20204;-51
2023/07/30 01:14:31;;;;;;;0.20;0.20;;;13.10;59.00;;;;;;5051890;28;20215;-59
2023/07/30 01:17:02;;;;;;;0.10;0.10;;;13.10;59.00;;;;;;5049381;28;20191;-56
2023/07/30 01:19:33;;;;;;;0.10;0.10;;;13.20;59.00;;;;;;5053799;28;20190;-52
2023/07/30 01:22:05;;;;;;;0.10;0.10;;;13.20;59.00;;;;;;5051612;28;20191;-50
2023/07/30 01:24:36;;;;;;;0.10;0.10;;;13.20;59.00;;;;;;5053168;28;20248;-50
2023/07/30 01:27:09;;;;;;;0.20;0.20;;;13.20;59.10;;;;;;5052794;28;20253;-51
2023/07/30 01:29:45;;;;;;;0.10;0.10;;;13.30;59.10;;;;;;5051922;28;20223;-52
2023/07/30 01:32:16;;;;;;;0.10;0.10;;;13.30;59.10;;;;;;5051701;28;20192;-49
2023/07/30 01:34:49;;;;;;;0.10;0.10;;;13.30;59.10;;;;;;5052344;28;20216;-56
2023/07/30 01:37:22;;;;;;;0.10;0.10;;;13.40;59.20;;;;;;5033783;28;20188;-58
2023/07/30 01:39:54;;;;;;;0.10;0.10;;;13.40;59.80;;;;;;5048203;28;20198;-58
2023/07/30 01:42:30;;;;;;;0.10;0.10;;;13.40;59.20;;;;;;5049481;28;20199;-59
2023/07/30 01:45:00;;;;;;;0.10;0.10;;;13.40;59.30;;;;;;5050627;28;20215;-59
2023/07/30 01:47:31;;;;;;;0.10;0.10;;;13.50;59.30;;;;;;5050892;28;20187;-57
2023/07/30 01:50:02;;;;;;;0.20;0.20;;;13.50;59.30;;;;;;5052106;28;20226;-60
2023/07/30 01:52:34;;;;;;;0.10;0.10;;;13.60;59.30;;;;;;5034808;28;20283;-55
2023/07/30 01:55:05;;;;;;;0.10;0.10;;;13.60;59.20;;;;;;5047837;28;20234;-56
2023/07/30 01:57:36;;;;;;;0.10;0.10;;;13.60;59.20;;;;;;5050850;28;20196;-53
2023/07/30 02:00:07;;;;;;;0.10;0.10;;;13.70;59.30;;;;;;5050222;28;20203;-52
2023/07/30 02:02:38;;;;;;;0.10;0.10;;;13.70;59.30;;;;;;5049787;28;20689;-57
2023/07/30 02:05:09;;;;;;;0.10;0.10;;;13.70;59.30;;;;;;5050462;28;20575;-56
2023/07/30 02:07:41;;;;;;;0.10;0.10;;;13.70;59.30;;;;;;5051236;28;20199;-55
2023/07/30 02:10:12;;;;;;;0.10;0.10;;;13.70;59.20;;;;;;5050316;28;20231;-55
2023/07/30 02:12:43;;;;;;;0.10;0.10;;;13.80;59.30;;;;;;5048308;28;20249;-62
2023/07/30 02:15:13;;;;;;;0.10;0.10;;;13.80;59.30;;;;;;5050334;28;20253;-54
2023/07/30 02:17:44;;;;;;;0.10;0.10;;;13.80;59.30;;;;;;5051808;28;20203;-48
2023/07/30 02:20:15;;;;;;;0.10;0.10;;;13.90;59.30;;;;;;5049491;28;20230;-47
2023/07/30 02:22:47;;;;;;;0.10;0.10;;;13.90;59.30;;;;;;5051125;28;20651;-47
2023/07/30 02:25:18;;;;;;;0.10;0.10;;;13.90;59.20;;;;;;5050111;28;20211;-59
2023/07/30 02:27:49;;;;;;;0.10;0.10;;;14.00;59.20;;;;;;5049668;28;20651;-49
2023/07/30 02:30:20;;;;;;;0.10;0.10;;;14.00;59.20;;;;;;5041900;28;20693;-49
2023/07/30 02:32:51;;;;;;;0.10;0.10;;;14.00;59.20;;;;;;5048203;28;20196;-54
2023/07/30 02:35:21;;;;;;;0.20;0.20;;;14.10;59.30;;;;;;5041603;28;20215;-53
2023/07/30 02:37:54;;;;;;;0.10;0.10;;;14.10;59.30;;;;;;5044038;28;20204;-58
2023/07/30 02:40:24;;;;;;;0.10;0.10;;;14.10;59.30;;;;;;5050120;28;20198;-55
2023/07/30 02:42:55;;;;;;;0.10;0.10;;;14.20;59.30;;;;;;5032598;28;20547;-61
2023/07/30 02:45:25;;;;;;;0.15;0.15;;;14.20;59.40;;;;;;5051948;28;20290;-53
2023/07/30 02:47:56;;;;;;;0.10;0.10;;;14.20;59.50;;;;;;5050813;28;20203;-55
2023/07/30 02:50:27;;;;;;;0.10;0.10;;;14.30;59.50;;;;;;5049147;28;20219;-56
2023/07/30 02:52:59;;;;;;;0.10;0.10;;;14.30;60.00;;;;;;5048688;28;20557;-56
2023/07/30 02:55:30;;;;;;;0.10;0.10;;;14.30;59.50;;;;;;5051792;28;20237;-53
2023/07/30 02:58:00;;;;;;;0.10;0.10;;;14.40;59.50;;;;;;5049841;28;20192;-57
2023/07/30 03:00:31;;;;;;;0.10;0.10;;;14.40;59.60;;;;;;5048099;28;20202;-59
2023/07/30 03:03:02;;;;;;;0.10;0.10;;;14.50;59.60;;;;;;5050375;28;20353;-57
2023/07/30 03:05:32;;;;;;;0.10;0.10;;;14.50;59.60;;;;;;5051767;28;20678;-58
2023/07/30 03:08:05;;;;;;;0.10;0.10;;;14.50;59.60;;;;;;5051530;28;20199;-55
2023/07/30 03:10:36;;;;;;;0.10;0.10;;;14.50;59.60;;;;;;5049094;28;20319;-54
2023/07/30 03:13:06;;;;;;;0.10;0.10;;;14.60;59.70;;;;;;5047628;28;20401;-49
2023/07/30 03:15:37;;;;;;;0.10;0.10;;;14.60;59.60;;;;;;5044979;28;20698;-53
2023/07/30 03:18:07;;;;;;;0.10;0.10;;;14.70;59.70;;;;;;5047764;28;20195;-55
2023/07/30 03:20:38;;;;;;;0.10;0.10;;;14.70;59.50;;;;;;5042512;28;20600;-52
2023/07/30 03:23:10;;;;;;;0.10;0.10;;;14.70;59.40;;;;;;5050328;28;20559;-53
2023/07/30 03:25:41;;;;;;;0.10;0.10;;;14.70;59.40;;;;;;5049042;28;20575;-53
2023/07/30 03:28:12;;;;;;;0.10;0.10;;;14.80;59.40;;;;;;5049320;28;20722;-59
2023/07/30 03:30:42;;;;;;;0.10;0.10;;;14.80;59.30;;;;;;5050393;28;20759;-59
2023/07/30 03:33:13;;;;;;;0.10;0.10;;;14.90;59.30;;;;;;5049365;28;20203;-48
2023/07/30 03:35:43;;;;;;;0.10;0.10;;;14.90;59.30;;;;;;5048682;28;20207;-53
2023/07/30 03:38:16;;;;;;;0.10;0.10;;;14.90;59.30;;;;;;5049583;28;20200;-55
2023/07/30 03:40:47;;;;;;;0.10;0.10;;;14.90;59.20;;;;;;5049530;28;20199;-54
2023/07/30 03:43:17;;;;;;;0.10;0.10;;;15.00;59.30;;;;;;5050149;28;20195;-55
2023/07/30 03:45:48;;;;;;;0.10;0.10;;;15.00;59.30;;;;;;5050425;28;20220;-56
2023/07/30 03:48:19;;;;;;;0.10;0.10;;;15.00;59.20;;;;;;5035398;28;20200;-56
2023/07/30 03:50:49;;;;;;;0.10;0.10;;;15.00;59.20;;;;;;5044091;28;20241;-55
2023/07/30 03:53:22;;;;;;;0.10;0.10;;;15.10;59.30;;;;;;5047097;28;20200;-55
2023/07/30 03:55:53;;;;;;;0.10;0.10;;;15.10;59.30;;;;;;5049678;28;20215;-57
2023/07/30 03:58:23;;;;;;;0.10;0.10;;;15.10;59.20;;;;;;5048296;28;20195;-51
2023/07/30 04:00:54;;;;;;;0.10;0.10;;;15.20;59.20;;;;;;5048234;28;20204;-48
2023/07/30 04:03:23;;;;;;;0.10;0.10;;;15.20;59.20;;;;;;5050127;28;20207;-51
2023/07/30 04:05:54;;;;;;;0.00;0.00;;;15.20;59.10;;;;;;5049706;28;20763;-50
2023/07/30 04:08:26;;;;;;;0.10;0.10;;;15.30;59.80;;;;;;5046226;28;20196;-56
2023/07/30 04:10:57;;;;;;;0.10;0.10;;;15.30;59.10;;;;;;5047884;28;20635;-57
2023/07/30 04:13:27;;;;;;;0.10;0.10;;;15.30;59.10;;;;;;5042420;28;20204;-55
2023/07/30 04:15:58;;;;;;;0.10;0.10;;;15.30;59.00;;;;;;5049950;28;20222;-60
2023/07/30 04:18:29;;;;;;;0.10;0.10;;;15.30;58.90;;;;;;5047564;28;20203;-61
2023/07/30 04:20:59;;;;;;;0.10;0.10;;;15.40;58.90;;;;;;5048287;28;20196;-58
2023/07/30 04:23:32;;;;;;;0.10;0.10;;;15.40;58.80;;;;;;5052317;28;20204;-57
2023/07/30 04:26:03;;;;;;;0.10;0.10;;;15.40;58.70;;;;;;5054985;28;20219;-52
2023/07/30 04:28:33;;;;;;;0.10;0.10;;;15.50;58.70;;;;;;5054607;28;20214;-56
2023/07/30 04:31:04;;;;;;;0.10;0.10;;;15.50;58.60;;;;;;5052469;28;20230;-58
2023/07/30 04:33:34;;;;;;;0.13;0.13;;;15.60;58.60;;;;;;5052559;28;20199;-58
2023/07/30 04:36:06;;;;;;;0.10;0.10;;;15.60;58.50;;;;;;5052666;28;20215;-53
2023/07/30 04:38:39;;;;;;;0.10;0.10;;;15.60;58.50;;;;;;5053193;28;20195;-55
2023/07/30 04:41:10;;;;;;;0.10;0.10;;;15.70;58.50;;;;;;5061210;28;20634;-56
2023/07/30 04:43:40;;;;;;;0.10;0.10;;;15.70;58.50;;;;;;5055060;28;20199;-53
2023/07/30 04:46:11;;;;;;;0.10;0.10;;;15.70;58.60;;;;;;5052155;28;20215;-57
2023/07/30 04:48:41;;;;;;;0.10;0.10;;;15.70;58.50;;;;;;5054298;28;20195;-58
2023/07/30 04:51:12;;;;;;;0.10;0.10;;;15.70;58.50;;;;;;5052426;28;20227;-56
2023/07/30 04:53:45;;;;;;;0.10;0.10;;;15.70;58.50;;;;;;5048994;28;20187;-55
2023/07/30 04:56:15;;;;;;;0.10;0.10;;;15.80;58.60;;;;;;5052765;28;20211;-53
2023/07/30 04:58:46;;;;;;;0.10;0.10;;;15.80;58.60;;;;;;5053558;28;20195;-54
2023/07/30 05:01:16;;;;;;;0.10;0.10;;;15.80;58.50;;;;;;5052038;28;20627;-54
2023/07/30 05:03:47;;;;;;;0.10;0.10;;;15.80;58.40;;;;;;5052527;28;20203;-57
2023/07/30 05:06:18;;;;;;;0.10;0.10;;;15.80;58.40;;;;;;5052193;28;20250;-54
2023/07/30 05:08:50;;;;;;;0.10;0.10;;;15.80;58.40;;;;;;5053771;28;20206;-53
2023/07/30 05:11:21;;;;;;;0.10;0.10;;;15.80;58.40;;;;;;5052569;28;20230;-52
2023/07/30 05:13:51;;;;;;;0.10;0.10;;;15.80;58.40;;;;;;5049442;28;20199;-49
2023/07/30 05:16:22;;;;;;;0.10;0.10;;;15.80;58.30;;;;;;5052756;28;20222;-56
2023/07/30 05:18:53;;;;;;;0.00;0.00;;;15.80;58.30;;;;;;5053216;28;20195;-52
2023/07/30 05:21:23;;;;;;;0.10;0.10;;;15.80;58.30;;;;;;5052422;28;20202;-54
2023/07/30 05:23:56;;;;;;;0.10;0.10;;;15.80;58.30;;;;;;5051099;28;20199;-54
2023/07/30 05:26:26;;;;;;;0.10;0.10;;;15.80;58.30;;;;;;5050072;28;20214;-59
2023/07/30 05:28:57;;;;;;;0.10;0.10;;;15.80;58.30;;;;;;5051037;28;20196;-52
2023/07/30 05:31:28;;;;;;;0.10;0.10;;;15.80;58.20;;;;;;5050700;28;20709;-54
2023/07/30 05:33:59;;;;;;;0.08;0.08;;;15.80;58.20;;;;;;5047166;28;20290;-51
2023/07/30 05:36:29;;;;;;;0.10;0.10;;;15.80;58.20;;;;;;5050412;28;20234;-53
2023/07/30 05:39:02;;;;;;;0.17;0.17;;;15.80;58.20;;;;;;5053296;28;20199;-53
2023/07/30 05:41:32;;;;;;;0.10;0.10;;;15.80;58.10;;;;;;5048443;28;20198;-54
2023/07/30 05:44:03;;;;;;;0.17;0.17;;;15.80;58.10;;;;;;5050437;28;20245;-58
2023/07/30 05:46:33;;;;;;;0.10;0.10;;;15.80;58.00;;;;;;5052327;28;20579;-56
2023/07/30 05:49:04;;;;;;;0.10;0.10;;;15.80;57.90;;;;;;5052454;28;20644;-55
2023/07/30 05:51:35;;;;;;;0.15;0.15;;;15.80;57.80;;;;;;5053334;28;20234;-48
2023/07/30 05:54:07;;;;;;;0.10;0.10;;;15.80;57.90;;;;;;5047944;28;20191;-58
2023/07/30 05:56:38;;;;;;;0.10;0.10;;;15.80;57.90;;;;;;5052514;28;20196;-52
2023/07/30 05:59:08;;;;;;;0.00;0.00;;;15.80;57.90;;;;;;5050124;28;20195;-53
2023/07/30 06:01:39;;;;;;;0.00;0.00;;;15.70;57.90;;;;;;5052090;28;20192;-55
2023/07/30 06:04:10;;;;;;;0.10;0.10;;;15.70;57.80;;;;;;5050836;28;20655;-59
2023/07/30 06:06:40;;;;;;;0.10;0.10;;;15.70;57.80;;;;;;5053457;28;20202;-52
2023/07/30 06:09:13;;;;;;;0.10;0.10;;;15.70;57.80;;;;;;5052521;28;20253;-57
2023/07/30 06:11:43;;;;;;;0.10;0.10;;;15.70;57.80;;;;;;5049751;28;20215;-53
2023/07/30 06:14:14;;;;;;;0.10;0.10;;;15.70;57.70;;;;;;5051610;28;20610;-50
2023/07/30 06:16:45;;;;;;;0.10;0.10;;;15.70;57.70;;;;;;5050306;28;20200;-48
2023/07/30 06:19:16;;;;;;;0.10;0.10;;;15.70;57.70;;;;;;5045214;28;20227;-56
2023/07/30 06:21:46;;;;;;;0.10;0.10;;;15.70;57.60;;;;;;5051668;28;20678;-55
2023/07/30 06:24:19;;;;;;;0.10;0.10;;;15.60;57.60;;;;;;5050137;28;20191;-57
2023/07/30 06:26:49;;;;;;;0.10;0.10;;;15.60;57.60;;;;;;5049877;28;21445;-58
2023/07/30 06:29:20;;;;;;;0.10;0.10;;;15.60;57.60;;;;;;5050873;28;20206;-55
2023/07/30 06:31:51;;;;;;;0.10;0.10;;;15.60;57.60;;;;;;5048135;28;20231;-52
2023/07/30 06:34:21;;;;;;;0.10;0.10;;;15.60;57.60;;;;;;5053476;28;20727;-58
2023/07/30 06:36:52;;;;;;;0.10;0.10;;;15.60;57.60;;;;;;5053053;28;20195;-60
2023/07/30 06:39:24;;;;;;;0.10;0.10;;;15.60;57.60;;;;;;5055557;28;20250;-52
2023/07/30 06:41:55;;;;;;;0.10;0.10;;;15.60;57.60;;;;;;5051599;28;20203;-57
2023/07/30 06:44:29;;;;;;;0.10;0.10;;;15.50;57.60;;;;;;5049412;28;20705;-48
2023/07/30 06:46:59;;;;;;;0.15;0.15;;;15.50;57.70;;;;;;5050579;28;20199;-51
2023/07/30 06:49:30;;;;;;;0.10;0.10;;;15.50;57.60;;;;;;5048007;28;20195;-47
2023/07/30 06:52:01;;;;;;;0.10;0.10;;;15.50;57.70;;;;;;5050630;28;20314;-54
2023/07/30 06:54:33;;;;;;;0.10;0.10;;;15.50;57.80;;;;;;5050182;28;20223;-60
2023/07/30 06:57:04;;;;;;;0.10;0.10;;;15.50;58.30;;;;;;5051942;28;20260;-52
2023/07/30 06:59:35;;;;;;;0.10;0.10;;;15.40;57.60;;;;;;5051654;28;20598;-59
2023/07/30 07:02:06;;;;;;;0.10;0.10;;;15.50;57.60;;;;;;5051606;28;20721;-52
2023/07/30 07:04:37;;;;;;;0.10;0.10;;;15.40;57.60;;;;;;5051466;28;20238;-55
2023/07/30 07:07:07;;;;;;;0.10;0.10;;;15.40;57.60;;;;;;5051701;28;20199;-56
2023/07/30 07:09:40;;;;;;;0.10;0.10;;;15.40;57.60;;;;;;5052057;28;20195;-56
2023/07/30 07:12:11;;;;;;;0.03;0.03;;;15.30;57.60;;;;;;5031784;28;20232;-55
2023/07/30 07:14:42;;;;;;;0.10;0.10;;;15.40;57.60;;;;;;5032262;28;20212;-54
2023/07/30 07:17:14;;;;;;;0.10;0.10;;;15.30;57.50;;;;;;5050538;28;20295;-58
2023/07/30 07:19:44;;;;;;;0.10;0.10;;;15.30;57.50;;;;;;5052153;28;20188;-57
2023/07/30 07:22:17;;;;;;;0.10;0.10;;;15.30;57.50;;;;;;5051501;28;20194;-56
2023/07/30 07:24:52;;;;;;;0.10;0.10;;;15.30;57.50;;;;;;5051562;28;20223;-56
2023/07/30 07:27:23;;;;;;;0.10;0.10;;;15.30;57.50;;;;;;5052195;28;20248;-61
2023/07/30 07:29:54;;;;;;;0.10;0.10;;;15.30;57.50;;;;;;5050841;28;20198;-60
2023/07/30 07:32:25;;;;;;;0.10;0.10;;;15.30;57.50;;;;;;5051984;28;20236;-61
2023/07/30 07:34:56;;;;;;;0.10;0.10;;;15.20;57.50;;;;;;5050977;28;20710;-51
2023/07/30 07:37:26;;;;;;;0.10;0.10;;;15.20;57.50;;;;;;5051652;28;20196;-55
2023/07/30 07:39:59;;;;;;;0.10;0.10;;;15.20;57.60;;;;;;5051609;28;20199;-56
2023/07/30 07:42:29;;;;;;;0.10;0.10;;;15.20;57.50;;;;;;5050301;28;20204;-60
2023/07/30 07:45:00;;;;;;;0.10;0.10;;;15.10;57.50;;;;;;5050728;28;20211;-49
2023/07/30 07:47:30;;;;;;;0.10;0.10;;;15.10;57.50;;;;;;5052415;28;20589;-53
2023/07/30 07:50:01;;;;;;;0.10;0.10;;;15.20;57.60;;;;;;5051887;28;20199;-56
2023/07/30 07:52:32;;;;;;;0.10;0.10;;;15.10;57.50;;;;;;5051754;28;20254;-61
2023/07/30 07:55:04;;;;;;;0.10;0.10;;;15.10;57.60;;;;;;5031649;28;20636;-54
2023/07/30 07:57:35;;;;;;;0.10;0.10;;;15.10;57.50;;;;;;5031139;28;20196;-59
2023/07/30 08:00:07;;;;;;;0.10;0.10;;;15.10;57.50;;;;;;5031899;28;20330;-60
2023/07/30 08:02:37;;;;;;;0.10;0.10;;;15.10;57.50;;;;;;5031335;28;20231;-54
2023/07/30 08:05:08;;;;;;;0.10;0.10;;;15.00;57.50;;;;;;5031146;28;20213;-51
2023/07/30 08:07:39;;;;;;;0.10;0.10;;;15.00;57.40;;;;;;5031450;28;20204;-55
2023/07/30 08:10:12;;;;;;;0.10;0.10;;;15.00;57.40;;;;;;5031684;28;20192;-60
2023/07/30 08:12:43;;;;;;;0.10;0.10;;;15.00;57.50;;;;;;5031177;28;20249;-58
2023/07/30 08:15:13;;;;;;;0.10;0.10;;;15.00;57.50;;;;;;5031512;28;20278;-51
2023/07/30 08:17:44;;;;;;;0.10;0.10;;;15.00;57.50;;;;;;5031633;28;20196;-55
2023/07/30 08:20:15;;;;;;;0.10;0.10;;;14.90;57.50;;;;;;5031211;28;20247;-53
2023/07/30 08:22:45;;;;;;;0.13;0.13;;;14.90;57.40;;;;;;5032989;28;20238;-52
2023/07/30 08:25:18;;;;;;;0.10;0.10;;;14.90;57.40;;;;;;5051110;28;20219;-62
2023/07/30 08:27:49;;;;;;;0.10;0.10;;;14.90;57.50;;;;;;5050937;28;20242;-61
2023/07/30 08:30:19;;;;;;;0.10;0.10;;;14.90;57.50;;;;;;5047015;28;20188;-54
2023/07/30 08:32:50;;;;;;;0.10;0.10;;;14.90;57.60;;;;;;5049813;28;20226;-54
2023/07/30 08:35:21;;;;;;;0.20;0.20;;;14.80;57.50;;;;;;5051046;28;20207;-54
2023/07/30 08:37:51;;;;;;;0.03;0.03;;;14.80;57.60;;;;;;5048675;28;20195;-59
2023/07/30 08:40:25;;;;;;;0.10;0.10;;;14.80;57.60;;;;;;5050511;28;20199;-64
2023/07/30 08:42:56;;;;;;;0.10;0.10;;;14.80;57.60;;;;;;5049524;28;20717;-59
2023/07/30 08:45:29;;;;;;;0.10;0.10;;;14.90;57.60;;;;;;5050505;28;20253;-54
2023/07/30 08:47:59;;;;;;;0.10;0.10;;;14.80;57.50;;;;;;5049432;28;20191;-56
2023/07/30 08:50:30;;;;;;;0.10;0.10;;;14.80;57.50;;;;;;5050536;28;20198;-56
2023/07/30 08:53:03;;;;;;;0.10;0.10;;;14.80;57.50;;;;;;5049164;28;20231;-54
2023/07/30 08:55:37;;;;;;;0.10;0.10;;;14.80;57.40;;;;;;5048359;28;20858;-48
2023/07/30 08:58:08;;;;;;;0.10;0.10;;;14.80;57.50;;;;;;5050597;28;20590;-53
2023/07/30 09:00:43;;;;;;;0.10;0.10;;;14.80;57.50;;;;;;5044885;28;20199;-57
2023/07/30 09:03:17;;;;;;;0.00;0.00;;;14.80;57.50;;;;;;5049134;28;20249;-55
2023/07/30 09:05:48;;;;;;;0.10;0.10;;;14.70;57.50;;;;;;5045924;28;20834;-55
2023/07/30 09:08:20;;;;;;;0.10;0.10;;;14.70;57.50;;;;;;5049055;28;20195;-58
2023/07/30 09:10:52;;;;;;;0.10;0.10;;;14.70;57.50;;;;;;5053162;28;20651;-51
2023/07/30 09:13:25;;;;;;;0.10;0.10;;;14.70;57.50;;;;;;5053392;28;20199;-51
2023/07/30 09:15:55;;;;;;;0.20;0.20;;;14.70;57.50;;;;;;5054143;28;20725;-50
2023/07/30 09:18:26;;;;;;;0.10;0.10;;;14.70;57.50;;;;;;5053379;28;20253;-54
2023/07/30 09:20:57;;;;;;;0.10;0.10;;;14.60;57.50;;;;;;5054215;28;20195;-56
2023/07/30 09:23:27;;;;;;;0.10;0.10;;;14.60;57.50;;;;;;5052947;28;20265;-60
2023/07/30 09:26:01;;;;;;;0.10;0.10;;;14.60;57.50;;;;;;5053969;28;20701;-53
2023/07/30 09:28:35;;;;;;;0.10;0.10;;;14.60;57.50;;;;;;5053134;28;20569;-59
2023/07/30 09:31:06;;;;;;;0.10;0.10;;;14.60;57.50;;;;;;5052987;28;20261;-51
2023/07/30 09:33:37;;;;;;;0.10;0.10;;;14.60;57.50;;;;;;5051880;28;20647;-47
2023/07/30 09:36:09;;;;;;;0.10;0.10;;;14.60;57.60;;;;;;5053760;28;20224;-57
2023/07/30 09:38:44;;;;;;;0.10;0.10;;;14.60;57.50;;;;;;5053572;28;20195;-52
2023/07/30 09:41:17;;;;;;;0.10;0.10;;;14.50;57.50;;;;;;5053153;28;20202;-52
2023/07/30 09:43:48;;;;;;;0.10;0.10;;;14.50;57.50;;;;;;5053318;28;20187;-63
2023/07/30 09:46:18;;;;;;;0.10;0.10;;;14.50;57.50;;;;;;5052507;28;20575;-56
2023/07/30 09:48:49;;;;;;;0.10;0.10;;;14.50;58.10;;;;;;5053496;28;20245;-60
2023/07/30 09:51:20;;;;;;;0.10;0.10;;;14.50;57.50;;;;;;5053601;28;20203;-60
2023/07/30 09:53:51;;;;;;;0.10;0.10;;;14.50;57.50;;;;;;5046258;28;20559;-53
2023/07/30 09:56:23;;;;;;;0.10;0.10;;;14.40;57.40;;;;;;5032122;28;20220;-59
2023/07/30 09:58:54;;;;;;;0.10;0.10;;;14.40;57.50;;;;;;5049588;28;20191;-54
2023/07/30 10:01:28;;;;;;;0.10;0.10;;;14.40;57.50;;;;;;5072794;28;20201;-59
2023/07/30 10:04:00;;;;;;;0.10;0.10;;;14.40;57.50;;;;;;5056265;28;20566;-50
2023/07/30 10:06:35;;;;;;;0.10;0.10;;;14.40;57.50;;;;;;5052629;28;20219;-59
2023/07/30 10:09:06;;;;;;;0.10;0.10;;;14.40;57.50;;;;;;5051879;28;20210;-59
2023/07/30 10:11:39;;;;;;;0.10;0.10;;;14.40;57.40;;;;;;5053510;28;20226;-61
2023/07/30 10:14:11;;;;;;;0.10;0.10;;;14.40;57.50;;;;;;5053035;28;20241;-52
2023/07/30 10:16:41;;;;;;;0.10;0.10;;;14.40;57.40;;;;;;5053194;28;20199;-53
2023/07/30 10:19:13;;;;;;;0.10;0.10;;;14.40;57.40;;;;;;5052682;28;20200;-53
2023/07/30 10:21:46;;;;;;;0.10;0.10;;;14.40;57.40;;;;;;5053070;28;20203;-48
2023/07/30 10:24:17;;;;;;;0.10;0.10;;;14.40;57.40;;;;;;5052027;28;20195;-53
2023/07/30 10:26:49;;;;;;;0.10;0.10;;;14.30;57.40;;;;;;5052718;28;20192;-56
2023/07/30 10:29:23;;;;;;;0.10;0.10;;;14.30;57.40;;;;;;5051962;28;20202;-53
2023/07/30 10:31:56;;;;;;;0.10;0.10;;;14.30;57.40;;;;;;5052945;28;20227;-57
2023/07/30 10:34:29;;;;;;;0.10;0.10;;;14.30;57.40;;;;;;5053145;28;20310;-60
2023/07/30 10:37:02;;;;;;;0.10;0.10;;;14.20;57.40;;;;;;5053977;28;20200;-55
2023/07/30 10:39:32;;;;;;;0.10;0.10;;;14.20;57.40;;;;;;5072598;28;20194;-50
2023/07/30 10:42:05;;;;;;;0.10;0.10;;;14.20;57.40;;;;;;5072628;28;20195;-53
2023/07/30 10:44:37;;;;;;;0.10;0.10;;;14.20;57.40;;;;;;5072890;28;20226;-56
2023/07/30 10:47:08;;;;;;;0.10;0.10;;;14.20;57.40;;;;;;5073434;28;20658;-54
2023/07/30 10:49:40;;;;;;;0.10;0.10;;;14.20;57.40;;;;;;5072732;28;20198;-63
2023/07/30 10:52:12;;;;;;;0.10;0.10;;;14.20;57.40;;;;;;5059956;28;20215;-55
2023/07/30 10:54:42;;;;;;;0.10;0.10;;;14.20;57.40;;;;;;5052763;28;20220;-56
2023/07/30 10:57:15;;;;;;;0.10;0.10;;;14.20;57.40;;;;;;5053065;28;20199;-57
2023/07/30 10:59:45;;;;;;;0.10;0.10;;;14.20;57.40;;;;;;5053157;28;20200;-51
2023/07/30 11:02:17;;;;;;;0.10;0.10;;;14.20;57.40;;;;;;5053039;28;20199;-48
2023/07/30 11:04:48;;;;;;;0.10;0.10;;;14.10;57.40;;;;;;5052214;28;20305;-47
2023/07/30 11:07:21;;;;;;;0.10;0.10;;;14.10;57.30;;;;;;5052292;28;20597;-48
2023/07/30 11:10:02;;;;;;;0.10;0.10;;;14.10;57.30;;;;;;5052759;28;20500;-50
2023/07/30 11:12:35;;;;;;;0.10;0.10;;;14.10;57.30;;;;;;5052035;28;20277;-53
2023/07/30 11:15:07;;;;;;;0.10;0.10;;;14.10;57.30;;;;;;5052250;28;20226;-54
2023/07/30 11:17:38;;;;;;;0.10;0.10;;;14.00;57.30;;;;;;5052184;28;20252;-54
2023/07/30 11:20:09;;;;;;;0.10;0.10;;;14.00;57.30;;;;;;5052199;28;20203;-51
2023/07/30 11:22:40;;;;;;;0.10;0.10;;;14.00;57.30;;;;;;5052192;28;20282;-52
2023/07/30 11:25:20;;;;;;;0.10;0.10;;;14.00;57.30;;;;;;5052236;28;20215;-55
2023/07/30 11:27:53;;;;;;;0.10;0.10;;;14.00;57.30;;;;;;5052327;28;20245;-54
2023/07/30 11:30:24;;;;;;;0.10;0.10;;;14.00;57.20;;;;;;5052037;28;20205;-47
2023/07/30 11:32:55;;;;;;;0.10;0.10;;;14.00;57.30;;;;;;5051468;28;20223;-52
2023/07/30 11:35:26;;;;;;;0.15;0.15;;;13.90;57.20;;;;;;5052107;28;20238;-47
2023/07/30 11:37:57;;;;;;;0.17;0.17;;;13.90;57.30;;;;;;5052133;28;20191;-52
2023/07/30 11:40:28;;;;;;;0.10;0.10;;;13.90;57.30;;;;;;5052226;28;20252;-51
2023/07/30 11:43:01;;;;;;;0.10;0.10;;;13.90;57.20;;;;;;5052479;28;20195;-54
2023/07/30 11:45:32;;;;;;;0.10;0.10;;;13.90;57.20;;;;;;5052039;28;20219;-53
2023/07/30 11:48:10;;;;;;;0.05;0.05;;;13.90;57.20;;;;;;5051290;28;20196;-54
2023/07/30 11:50:51;;;;;;;0.20;0.20;;;13.90;57.20;;;;;;5052729;28;20241;-57
2023/07/30 11:53:21;;;;;;;0.17;0.17;;;13.90;57.20;;;;;;5045334;28;20235;-51
2023/07/30 11:55:52;;;;;;;0.10;0.10;;;13.80;57.20;;;;;;5031752;28;20219;-62
2023/07/30 11:58:30;;;;;;;0.10;0.10;;;13.80;57.20;;;;;;5031646;28;20200;-50
2023/07/30 12:01:01;;;;;;;0.10;0.10;;;13.80;57.20;;;;;;5032014;28;20204;-55
2023/07/30 12:03:32;;;;;;;0.10;0.10;;;13.80;57.20;;;;;;5032019;28;20196;-55
2023/07/30 12:06:08;;;;;;;0.10;0.10;;;13.80;57.20;;;;;;5031840;28;20556;-53
2023/07/30 12:08:39;;;;;;;0.10;0.10;;;13.80;57.20;;;;;;5031746;28;20196;-56
2023/07/30 12:11:10;;;;;;;0.10;0.10;;;13.70;57.20;;;;;;5031752;28;20660;-50
2023/07/30 12:13:50;;;;;;;0.13;0.13;;;13.70;57.20;;;;;;5032129;28;20227;-53
2023/07/30 12:16:20;;;;;;;0.13;0.13;;;13.70;57.30;;;;;;5031241;28;20317;-55
2023/07/30 12:18:51;;;;;;;0.10;0.10;;;13.70;57.20;;;;;;5031369;28;20200;-59
2023/07/30 12:21:22;;;;;;;0.10;0.10;;;13.70;57.20;;;;;;5031915;28;20208;-51
2023/07/30 12:23:52;;;;;;;0.10;0.10;;;13.70;57.20;;;;;;5042568;28;20218;-57
2023/07/30 12:26:23;;;;;;;0.10;0.10;;;13.70;57.20;;;;;;5051524;28;20211;-47
2023/07/30 12:28:55;;;;;;;0.10;0.10;;;13.70;57.20;;;;;;5051362;28;20203;-56
2023/07/30 12:31:26;;;;;;;0.10;0.10;;;13.70;57.20;;;;;;5066390;28;20191;-55
2023/07/30 12:33:57;;;;;;;0.10;0.10;;;13.70;57.10;;;;;;5071532;28;20225;-51
2023/07/30 12:36:28;;;;;;;0.20;0.20;;;13.70;57.20;;;;;;5071515;28;20222;-56
2023/07/30 12:38:58;;;;;;;0.10;0.10;;;13.60;57.10;;;;;;5071547;28;20195;-64
2023/07/30 12:41:29;;;;;;;0.10;0.10;;;13.60;57.10;;;;;;5071699;28;20583;-57
2023/07/30 12:44:03;;;;;;;0.10;0.10;;;13.60;57.10;;;;;;5072433;28;20256;-58
2023/07/30 12:46:34;;;;;;;0.10;0.10;;;13.60;57.10;;;;;;5075078;28;20273;-51
2023/07/30 12:49:04;;;;;;;0.10;0.10;;;13.60;57.10;;;;;;5075382;28;20202;-50
2023/07/30 12:51:35;;;;;;;0.10;0.10;;;13.60;57.10;;;;;;5075405;28;20226;-57
2023/07/30 12:54:06;;;;;;;0.10;0.10;;;13.50;57.10;;;;;;5062049;28;20318;-55
2023/07/30 12:56:37;;;;;;;0.10;0.10;;;13.50;57.10;;;;;;5054913;28;20556;-61
2023/07/30 12:59:09;;;;;;;0.10;0.10;;;13.50;57.10;;;;;;5055050;28;20208;-58
2023/07/30 13:01:40;;;;;;;0.20;0.20;;;13.50;57.10;;;;;;5054538;28;20192;-60
2023/07/30 13:04:10;;;;;;;0.13;0.13;;;13.50;57.10;;;;;;5054877;28;20199;-55
2023/07/30 13:06:41;;;;;;;0.10;0.10;;;13.50;57.10;;;;;;5054721;28;20214;-56
2023/07/30 13:09:11;;;;;;;0.20;0.20;;;13.50;57.10;;;;;;5054609;28;20199;-65